createdAt,value
2023-03-29T00:00:05.570Z,1023.13
2023-03-29T00:00:38.231Z,1023.13
2023-03-29T00:01:08.270Z,1023.03
2023-03-29T00:01:41.143Z,1023.13
2023-03-29T00:02:12.271Z,1023.13
2023-03-29T00:02:45.132Z,1023.13
2023-03-29T00:03:16.535Z,1023.13
2023-03-29T00:03:49.131Z,1023.13
2023-03-29T00:04:20.235Z,1023.13
2023-03-29T00:04:52.932Z,1023.13
2023-03-29T00:05:24.331Z,1023.13
2023-03-29T00:05:56.892Z,1023.23
2023-03-29T00:06:28.338Z,1023.23
2023-03-29T00:07:01.225Z,1023.23
2023-03-29T00:07:32.270Z,1023.23
2023-03-29T00:08:05.184Z,1023.13
2023-03-29T00:08:36.280Z,1023.13
2023-03-29T00:09:08.965Z,1023.13
2023-03-29T00:09:40.174Z,1023.23
2023-03-29T00:10:13.622Z,1023.23
2023-03-29T00:10:44.338Z,1023.23
2023-03-29T00:11:16.961Z,1023.23
2023-03-29T00:11:48.183Z,1023.23
2023-03-29T00:12:21.250Z,1023.23
2023-03-29T00:12:52.182Z,1023.43
2023-03-29T00:13:24.953Z,1023.43
2023-03-29T00:13:56.128Z,1023.13
2023-03-29T00:14:29.274Z,1023.13
2023-03-29T00:15:01.633Z,1023.23
2023-03-29T00:15:33.489Z,1023.23
2023-03-29T00:16:04.342Z,1023.13
2023-03-29T00:16:37.037Z,1023.13
2023-03-29T00:17:08.183Z,1023.13
2023-03-29T00:17:41.095Z,1023.13
2023-03-29T00:18:12.129Z,1023.13
2023-03-29T00:18:44.907Z,1023.23
2023-03-29T00:19:16.098Z,1023.23
2023-03-29T00:19:48.973Z,1023.33
2023-03-29T00:20:20.382Z,1023.33
2023-03-29T00:20:52.909Z,1023.13
2023-03-29T00:21:24.203Z,1023.13
2023-03-29T00:21:57.728Z,1023.13
2023-03-29T00:22:28.164Z,1023.13
2023-03-29T00:23:00.979Z,1022.92
2023-03-29T00:23:32.222Z,1022.92
2023-03-29T00:24:04.848Z,1023.03
2023-03-29T00:24:36.157Z,1023.03
2023-03-29T00:25:09.109Z,1023.13
2023-03-29T00:25:40.022Z,1023.03
2023-03-29T00:26:12.969Z,1023.03
2023-03-29T00:26:44.154Z,1022.92
2023-03-29T00:27:17.148Z,1022.92
2023-03-29T00:27:48.116Z,1022.92
2023-03-29T00:28:21.793Z,1022.92
2023-03-29T00:28:52.318Z,1023.03
2023-03-29T00:29:24.914Z,1023.03
2023-03-29T00:29:56.097Z,1022.82
2023-03-29T00:30:31.037Z,1022.82
2023-03-29T00:31:00.532Z,1022.92
2023-03-29T00:31:32.770Z,1022.92
2023-03-29T00:32:04.163Z,1022.72
2023-03-29T00:32:37.188Z,1022.72
2023-03-29T00:33:08.044Z,1022.72
2023-03-29T00:33:40.982Z,1022.82
2023-03-29T00:34:12.074Z,1022.82
2023-03-29T00:34:45.073Z,1022.92
2023-03-29T00:35:16.387Z,1022.92
2023-03-29T00:35:48.981Z,1022.72
2023-03-29T00:36:20.148Z,1022.72
2023-03-29T00:36:52.991Z,1022.72
2023-03-29T00:37:24.136Z,1022.72
2023-03-29T00:37:56.936Z,1022.92
2023-03-29T00:38:28.240Z,1022.92
2023-03-29T00:39:01.035Z,1022.82
2023-03-29T00:39:32.252Z,1022.82
2023-03-29T00:40:06.220Z,1022.72
2023-03-29T00:40:36.089Z,1022.72
2023-03-29T00:41:09.064Z,1023.03
2023-03-29T00:41:40.175Z,1022.72
2023-03-29T00:42:13.113Z,1022.72
2023-03-29T00:42:44.118Z,1022.82
2023-03-29T00:43:16.867Z,1022.82
2023-03-29T00:43:48.144Z,1022.42
2023-03-29T00:44:20.826Z,1022.42
2023-03-29T00:44:52.170Z,1022.62
2023-03-29T00:45:26.085Z,1022.62
2023-03-29T00:45:56.261Z,1022.72
2023-03-29T00:46:29.006Z,1022.72
2023-03-29T00:47:00.131Z,1022.52
2023-03-29T00:47:33.194Z,1022.52
2023-03-29T00:48:04.161Z,1022.52
2023-03-29T00:48:36.972Z,1022.52
2023-03-29T00:49:08.168Z,1022.62
2023-03-29T00:49:41.037Z,1022.72
2023-03-29T00:50:12.372Z,1022.72
2023-03-29T00:50:45.010Z,1022.82
2023-03-29T00:51:16.234Z,1022.82
2023-03-29T00:51:49.130Z,1022.62
2023-03-29T00:52:20.097Z,1022.62
2023-03-29T00:52:53.024Z,1022.42
2023-03-29T00:53:24.069Z,1022.42
2023-03-29T00:53:57.431Z,1022.62
2023-03-29T00:54:28.151Z,1022.62
2023-03-29T00:55:01.430Z,1022.62
2023-03-29T00:55:32.111Z,1022.62
2023-03-29T00:56:04.938Z,1022.72
2023-03-29T00:56:36.223Z,1022.72
2023-03-29T00:57:09.056Z,1022.72
2023-03-29T00:57:40.107Z,1022.52
2023-03-29T00:58:13.152Z,1022.52
2023-03-29T00:58:44.280Z,1022.52
2023-03-29T00:59:17.128Z,1022.52
2023-03-29T00:59:48.119Z,1022.52
2023-03-29T01:00:22.052Z,1022.52
2023-03-29T01:00:52.223Z,1022.72
2023-03-29T01:01:25.039Z,1022.72
2023-03-29T01:01:56.215Z,1022.52
2023-03-29T01:02:29.213Z,1022.52
2023-03-29T01:03:00.149Z,1022.42
2023-03-29T01:03:33.176Z,1022.42
2023-03-29T01:04:04.348Z,1022.42
2023-03-29T01:04:37.573Z,1022.42
2023-03-29T01:05:08.252Z,1022.42
2023-03-29T01:05:40.987Z,1022.21
2023-03-29T01:06:12.018Z,1022.21
2023-03-29T01:06:44.971Z,1022.32
2023-03-29T01:07:16.217Z,1022.32
2023-03-29T01:07:49.064Z,1022.21
2023-03-29T01:08:20.122Z,1022.21
2023-03-29T01:08:53.182Z,1022.42
2023-03-29T01:09:24.184Z,1022.42
2023-03-29T01:09:57.246Z,1022.21
2023-03-29T01:10:28.394Z,1022.21
2023-03-29T01:11:01.184Z,1022.42
2023-03-29T01:11:32.269Z,1022.42
2023-03-29T01:12:05.039Z,1022.21
2023-03-29T01:12:36.284Z,1022.21
2023-03-29T01:13:09.218Z,1022.32
2023-03-29T01:13:40.275Z,1022.21
2023-03-29T01:14:13.052Z,1022.21
2023-03-29T01:14:44.215Z,1021.91
2023-03-29T01:15:17.999Z,1021.91
2023-03-29T01:15:48.219Z,1022.01
2023-03-29T01:16:21.018Z,1022.01
2023-03-29T01:16:52.461Z,1022.01
2023-03-29T01:17:25.228Z,1022.01
2023-03-29T01:17:56.195Z,1022.32
2023-03-29T01:18:29.031Z,1022.32
2023-03-29T01:19:00.343Z,1022.11
2023-03-29T01:19:33.105Z,1022.11
2023-03-29T01:20:04.518Z,1022.21
2023-03-29T01:20:37.071Z,1022.21
2023-03-29T01:21:08.382Z,1022.21
2023-03-29T01:21:40.939Z,1022.11
2023-03-29T01:22:12.339Z,1022.11
2023-03-29T01:22:45.061Z,1021.91
2023-03-29T01:23:16.180Z,1021.91
2023-03-29T01:23:49.080Z,1021.84
2023-03-29T01:24:20.250Z,1021.84
2023-03-29T01:24:53.307Z,1022.01
2023-03-29T01:25:24.484Z,1022.01
2023-03-29T01:25:57.104Z,1022.11
2023-03-29T01:26:28.368Z,1022.11
2023-03-29T01:27:00.777Z,1022.01
2023-03-29T01:27:32.238Z,1022.01
2023-03-29T01:28:05.385Z,1021.91
2023-03-29T01:28:36.113Z,1021.91
2023-03-29T01:29:08.967Z,1022.01
2023-03-29T01:29:40.148Z,1021.91
2023-03-29T01:30:13.845Z,1021.91
2023-03-29T01:30:44.260Z,1022.11
2023-03-29T01:31:17.017Z,1022.11
2023-03-29T01:31:48.303Z,1022.01
2023-03-29T01:32:20.952Z,1022.01
2023-03-29T01:32:52.220Z,1021.84
2023-03-29T01:33:24.900Z,1021.84
2023-03-29T01:33:56.168Z,1022.01
2023-03-29T01:34:28.977Z,1022.01
2023-03-29T01:35:00.133Z,1022.01
2023-03-29T01:35:33.509Z,1022.01
2023-03-29T01:36:04.152Z,1022.11
2023-03-29T01:36:37.215Z,1022.11
2023-03-29T01:37:08.208Z,1021.84
2023-03-29T01:37:40.974Z,1021.91
2023-03-29T01:38:12.189Z,1021.91
2023-03-29T01:38:45.000Z,1021.64
2023-03-29T01:39:16.283Z,1021.64
2023-03-29T01:39:48.920Z,1021.74
2023-03-29T01:40:20.607Z,1021.74
2023-03-29T01:40:54.320Z,1021.91
2023-03-29T01:41:24.141Z,1021.91
2023-03-29T01:41:57.049Z,1021.91
2023-03-29T01:42:28.344Z,1021.91
2023-03-29T01:43:01.242Z,1021.74
2023-03-29T01:43:32.185Z,1021.74
2023-03-29T01:44:05.095Z,1021.84
2023-03-29T01:44:36.334Z,1021.84
2023-03-29T01:45:09.866Z,1021.64
2023-03-29T01:45:40.322Z,1021.84
2023-03-29T01:46:13.088Z,1021.84
2023-03-29T01:46:44.451Z,1021.91
2023-03-29T01:47:17.085Z,1021.91
2023-03-29T01:47:48.302Z,1021.91
2023-03-29T01:48:21.635Z,1021.91
2023-03-29T01:48:52.142Z,1021.91
2023-03-29T01:49:24.991Z,1021.91
2023-03-29T01:49:56.169Z,1021.84
2023-03-29T01:50:29.121Z,1021.84
2023-03-29T01:51:00.293Z,1021.84
2023-03-29T01:51:32.968Z,1021.84
2023-03-29T01:52:04.309Z,1021.84
2023-03-29T01:52:37.027Z,1021.84
2023-03-29T01:53:08.149Z,1021.74
2023-03-29T01:53:41.119Z,1021.64
2023-03-29T01:54:12.125Z,1021.64
2023-03-29T01:54:44.991Z,1021.74
2023-03-29T01:55:16.454Z,1021.74
2023-03-29T01:55:49.019Z,1021.91
2023-03-29T01:56:20.220Z,1021.91
2023-03-29T01:56:53.074Z,1021.84
2023-03-29T01:57:24.271Z,1021.84
2023-03-29T01:57:57.069Z,1021.64
2023-03-29T01:58:28.189Z,1021.64
2023-03-29T01:59:01.112Z,1021.84
2023-03-29T01:59:32.396Z,1021.84
2023-03-29T02:00:06.266Z,1021.74
2023-03-29T02:00:36.105Z,1021.74
2023-03-29T02:01:09.020Z,1021.74
2023-03-29T02:01:40.136Z,1021.84
2023-03-29T02:02:13.147Z,1021.84
2023-03-29T02:02:44.190Z,1021.74
2023-03-29T02:03:17.163Z,1021.74
2023-03-29T02:03:48.267Z,1021.64
2023-03-29T02:04:21.908Z,1021.64
2023-03-29T02:04:52.189Z,1021.54
2023-03-29T02:05:25.000Z,1021.54
2023-03-29T02:05:56.164Z,1021.84
2023-03-29T02:06:28.931Z,1021.84
2023-03-29T02:07:00.106Z,1021.64
2023-03-29T02:07:32.976Z,1021.64
2023-03-29T02:08:04.182Z,1021.74
2023-03-29T02:08:37.841Z,1021.74
2023-03-29T02:09:08.046Z,1021.64
2023-03-29T02:09:40.902Z,1021.64
2023-03-29T02:10:12.438Z,1021.64
2023-03-29T02:10:45.011Z,1021.64
2023-03-29T02:11:16.121Z,1021.64
2023-03-29T02:11:49.032Z,1021.64
2023-03-29T02:12:20.164Z,1021.64
2023-03-29T02:12:54.755Z,1021.64
2023-03-29T02:13:24.320Z,1021.64
2023-03-29T02:13:57.130Z,1021.64
2023-03-29T02:14:28.324Z,1021.64
2023-03-29T02:15:02.420Z,1021.74
2023-03-29T02:15:32.545Z,1021.74
2023-03-29T02:16:05.322Z,1021.74
2023-03-29T02:16:36.233Z,1021.74
2023-03-29T02:17:09.243Z,1021.74
2023-03-29T02:17:40.428Z,1021.54
2023-03-29T02:18:13.092Z,1021.54
2023-03-29T02:18:44.273Z,1021.64
2023-03-29T02:19:16.999Z,1021.64
2023-03-29T02:19:48.386Z,1021.64
2023-03-29T02:20:22.078Z,1021.64
2023-03-29T02:20:52.192Z,1021.64
2023-03-29T02:21:25.121Z,1021.64
2023-03-29T02:21:56.115Z,1021.64
2023-03-29T02:22:29.074Z,1021.64
2023-03-29T02:23:00.197Z,1021.43
2023-03-29T02:23:33.087Z,1021.43
2023-03-29T02:24:04.216Z,1021.84
2023-03-29T02:24:37.026Z,1021.84
2023-03-29T02:25:08.455Z,1021.74
2023-03-29T02:25:40.879Z,1021.64
2023-03-29T02:26:12.147Z,1021.64
2023-03-29T02:26:44.890Z,1021.74
2023-03-29T02:27:16.254Z,1021.74
2023-03-29T02:27:48.843Z,1021.64
2023-03-29T02:28:20.181Z,1021.64
2023-03-29T02:28:52.958Z,1021.64
2023-03-29T02:29:24.135Z,1021.64
2023-03-29T02:29:56.880Z,1021.54
2023-03-29T02:30:29.924Z,1021.54
2023-03-29T02:31:01.279Z,1021.33
2023-03-29T02:31:32.329Z,1021.33
2023-03-29T02:32:06.017Z,1021.54
2023-03-29T02:32:36.414Z,1021.54
2023-03-29T02:33:08.951Z,1021.54
2023-03-29T02:33:40.324Z,1021.64
2023-03-29T02:34:13.133Z,1021.64
2023-03-29T02:34:44.452Z,1021.64
2023-03-29T02:35:18.252Z,1021.64
2023-03-29T02:35:48.273Z,1021.74
2023-03-29T02:36:21.032Z,1021.74
2023-03-29T02:36:52.161Z,1021.54
2023-03-29T02:37:25.063Z,1021.54
2023-03-29T02:37:56.371Z,1021.64
2023-03-29T02:38:29.277Z,1021.64
2023-03-29T02:39:00.270Z,1021.23
2023-03-29T02:39:33.038Z,1021.23
2023-03-29T02:40:04.617Z,1021.33
2023-03-29T02:40:37.198Z,1021.33
2023-03-29T02:41:08.335Z,1021.43
2023-03-29T02:41:41.016Z,1021.33
2023-03-29T02:42:12.376Z,1021.33
2023-03-29T02:42:45.097Z,1021.43
2023-03-29T02:43:16.406Z,1021.43
2023-03-29T02:43:49.048Z,1021.64
2023-03-29T02:44:20.285Z,1021.64
2023-03-29T02:44:53.323Z,1021.33
2023-03-29T02:45:25.266Z,1021.33
2023-03-29T02:45:57.349Z,1021.54
2023-03-29T02:46:28.372Z,1021.54
2023-03-29T02:47:01.222Z,1021.33
2023-03-29T02:47:32.768Z,1021.33
2023-03-29T02:48:05.025Z,1021.54
2023-03-29T02:48:36.264Z,1021.54
2023-03-29T02:49:09.190Z,1021.43
2023-03-29T02:49:40.345Z,1021.43
2023-03-29T02:50:13.387Z,1021.43
2023-03-29T02:50:44.264Z,1021.54
2023-03-29T02:51:19.398Z,1021.54
2023-03-29T02:51:48.344Z,1021.23
2023-03-29T02:52:04.403Z,1021.23
2023-03-29T02:52:36.159Z,1021.23
2023-03-29T02:53:08.399Z,1021.33
2023-03-29T02:53:40.340Z,1021.23
2023-03-29T02:54:12.299Z,1021.23
2023-03-29T02:54:44.303Z,1021.43
2023-03-29T02:55:16.484Z,1021.43
2023-03-29T02:55:48.519Z,1021.33
2023-03-29T02:56:20.222Z,1021.33
2023-03-29T02:56:53.283Z,1021.23
2023-03-29T02:57:24.397Z,1021.23
2023-03-29T02:57:57.084Z,1021.03
2023-03-29T02:58:28.306Z,1021.03
2023-03-29T02:59:00.966Z,1021.33
2023-03-29T02:59:32.349Z,1021.33
2023-03-29T03:00:06.166Z,1021.23
2023-03-29T03:00:36.454Z,1021.23
2023-03-29T03:01:09.365Z,1021.13
2023-03-29T03:01:40.190Z,1021.23
2023-03-29T03:02:13.202Z,1021.23
2023-03-29T03:02:44.430Z,1021.13
2023-03-29T03:03:17.253Z,1021.13
2023-03-29T03:03:48.398Z,1021.03
2023-03-29T03:04:21.082Z,1021.03
2023-03-29T03:04:52.269Z,1020.93
2023-03-29T03:05:26.996Z,1020.93
2023-03-29T03:05:56.153Z,1021.33
2023-03-29T03:06:30.078Z,1021.33
2023-03-29T03:07:00.416Z,1021.13
2023-03-29T03:07:33.202Z,1021.13
2023-03-29T03:08:04.237Z,1021.13
2023-03-29T03:08:37.285Z,1021.13
2023-03-29T03:09:08.301Z,1021.03
2023-03-29T03:09:40.905Z,1021.13
2023-03-29T03:10:12.500Z,1021.13
2023-03-29T03:10:44.946Z,1021.13
2023-03-29T03:11:16.090Z,1021.13
2023-03-29T03:11:49.237Z,1021.13
2023-03-29T03:12:20.375Z,1021.13
2023-03-29T03:12:53.012Z,1021.03
2023-03-29T03:13:24.209Z,1021.03
2023-03-29T03:13:57.914Z,1020.93
2023-03-29T03:14:28.372Z,1020.93
2023-03-29T03:15:02.440Z,1020.93
2023-03-29T03:15:32.358Z,1020.93
2023-03-29T03:16:05.268Z,1021.03
2023-03-29T03:16:36.211Z,1021.03
2023-03-29T03:17:09.097Z,1021.13
2023-03-29T03:17:40.366Z,1021.13
2023-03-29T03:18:13.100Z,1021.13
2023-03-29T03:18:44.033Z,1021.13
2023-03-29T03:19:17.224Z,1021.13
2023-03-29T03:19:48.520Z,1020.93
2023-03-29T03:20:21.453Z,1020.93
2023-03-29T03:20:52.265Z,1021.03
2023-03-29T03:21:25.191Z,1021.03
2023-03-29T03:21:56.256Z,1021.13
2023-03-29T03:22:28.886Z,1021.13
2023-03-29T03:23:00.310Z,1020.93
2023-03-29T03:23:33.149Z,1020.93
2023-03-29T03:24:04.250Z,1020.83
2023-03-29T03:24:37.159Z,1020.83
2023-03-29T03:25:08.618Z,1021.23
2023-03-29T03:25:40.869Z,1021.33
2023-03-29T03:26:12.369Z,1021.33
2023-03-29T03:26:45.069Z,1021.23
2023-03-29T03:27:16.287Z,1021.23
2023-03-29T03:27:49.956Z,1021.03
2023-03-29T03:28:20.303Z,1021.03
2023-03-29T03:28:53.012Z,1020.93
2023-03-29T03:29:24.072Z,1020.93
2023-03-29T03:29:56.959Z,1021.03
2023-03-29T03:30:29.339Z,1021.03
2023-03-29T03:31:01.223Z,1021.03
2023-03-29T03:31:32.225Z,1021.03
2023-03-29T03:32:05.389Z,1020.93
2023-03-29T03:32:36.233Z,1020.93
2023-03-29T03:33:08.883Z,1021.03
2023-03-29T03:33:40.116Z,1020.93
2023-03-29T03:34:13.176Z,1020.93
2023-03-29T03:34:44.267Z,1021.13
2023-03-29T03:35:17.219Z,1021.13
2023-03-29T03:35:48.324Z,1020.83
2023-03-29T03:36:21.243Z,1020.83
2023-03-29T03:36:52.081Z,1020.83
2023-03-29T03:37:25.306Z,1020.83
2023-03-29T03:37:56.253Z,1021.03
2023-03-29T03:38:29.176Z,1021.03
2023-03-29T03:39:00.152Z,1021.03
2023-03-29T03:39:33.048Z,1021.03
2023-03-29T03:40:04.525Z,1020.93
2023-03-29T03:40:36.972Z,1020.93
2023-03-29T03:41:08.244Z,1020.93
2023-03-29T03:41:41.098Z,1021.03
2023-03-29T03:42:12.176Z,1021.03
2023-03-29T03:42:44.982Z,1021.03
2023-03-29T03:43:16.185Z,1021.03
2023-03-29T03:43:49.062Z,1020.83
2023-03-29T03:44:20.158Z,1020.83
2023-03-29T03:44:52.917Z,1021.13
2023-03-29T03:45:25.151Z,1021.13
2023-03-29T03:45:56.969Z,1021.03
2023-03-29T03:46:29.679Z,1021.03
2023-03-29T03:47:01.195Z,1020.93
2023-03-29T03:47:32.608Z,1020.93
2023-03-29T03:48:05.063Z,1021.03
2023-03-29T03:48:36.160Z,1021.03
2023-03-29T03:49:09.155Z,1020.93
2023-03-29T03:49:40.285Z,1020.93
2023-03-29T03:50:13.171Z,1020.93
2023-03-29T03:50:44.183Z,1020.83
2023-03-29T03:51:17.056Z,1020.83
2023-03-29T03:51:49.381Z,1020.83
2023-03-29T03:52:04.362Z,1020.83
2023-03-29T03:52:36.067Z,1020.83
2023-03-29T03:53:08.175Z,1020.83
2023-03-29T03:53:40.261Z,1020.72
2023-03-29T03:54:12.292Z,1020.72
2023-03-29T03:54:44.114Z,1020.72
2023-03-29T03:55:16.534Z,1020.72
2023-03-29T03:55:48.359Z,1020.83
2023-03-29T03:56:20.448Z,1020.83
2023-03-29T03:56:53.053Z,1020.93
2023-03-29T03:57:24.308Z,1020.93
2023-03-29T03:57:57.270Z,1020.83
2023-03-29T03:58:28.178Z,1020.83
2023-03-29T03:59:01.154Z,1020.72
2023-03-29T03:59:32.288Z,1020.72
2023-03-29T04:00:06.367Z,1020.83
2023-03-29T04:00:36.120Z,1020.83
2023-03-29T04:01:09.853Z,1020.62
2023-03-29T04:01:40.133Z,1020.62
2023-03-29T04:02:13.181Z,1020.62
2023-03-29T04:02:44.296Z,1020.72
2023-03-29T04:03:17.272Z,1020.72
2023-03-29T04:03:48.225Z,1020.62
2023-03-29T04:04:20.992Z,1020.62
2023-03-29T04:04:52.249Z,1020.52
2023-03-29T04:05:25.170Z,1020.52
2023-03-29T04:05:56.257Z,1020.72
2023-03-29T04:06:28.994Z,1020.72
2023-03-29T04:07:00.353Z,1020.72
2023-03-29T04:07:33.221Z,1020.72
2023-03-29T04:08:04.312Z,1020.83
2023-03-29T04:08:37.178Z,1020.83
2023-03-29T04:09:08.238Z,1020.62
2023-03-29T04:09:41.066Z,1020.72
2023-03-29T04:10:12.473Z,1020.72
2023-03-29T04:10:45.105Z,1020.72
2023-03-29T04:11:16.093Z,1020.72
2023-03-29T04:11:49.826Z,1020.72
2023-03-29T04:12:20.230Z,1020.72
2023-03-29T04:12:53.144Z,1020.72
2023-03-29T04:13:24.111Z,1020.72
2023-03-29T04:13:57.191Z,1020.62
2023-03-29T04:14:28.292Z,1020.62
2023-03-29T04:15:02.419Z,1020.72
2023-03-29T04:15:32.523Z,1020.72
2023-03-29T04:16:06.179Z,1020.52
2023-03-29T04:16:36.130Z,1020.52
2023-03-29T04:17:09.187Z,1020.72
2023-03-29T04:17:40.566Z,1020.62
2023-03-29T04:18:13.225Z,1020.62
2023-03-29T04:18:44.258Z,1020.52
2023-03-29T04:19:17.060Z,1020.52
2023-03-29T04:19:48.234Z,1020.62
2023-03-29T04:20:21.550Z,1020.62
2023-03-29T04:20:52.189Z,1020.62
2023-03-29T04:21:26.005Z,1020.62
2023-03-29T04:21:56.092Z,1020.62
2023-03-29T04:22:29.267Z,1020.62
2023-03-29T04:23:00.307Z,1020.42
2023-03-29T04:23:32.966Z,1020.42
2023-03-29T04:24:04.149Z,1020.62
2023-03-29T04:24:37.047Z,1020.62
2023-03-29T04:25:08.631Z,1020.62
2023-03-29T04:25:43.896Z,1020.52
2023-03-29T04:26:12.137Z,1020.52
2023-03-29T04:26:45.072Z,1020.62
2023-03-29T04:27:16.214Z,1020.62
2023-03-29T04:27:49.107Z,1020.83
2023-03-29T04:28:20.196Z,1020.83
2023-03-29T04:28:53.101Z,1020.72
2023-03-29T04:29:24.148Z,1020.72
2023-03-29T04:29:56.928Z,1020.72
2023-03-29T04:30:29.311Z,1020.72
2023-03-29T04:31:01.397Z,1020.62
2023-03-29T04:31:32.320Z,1020.62
2023-03-29T04:32:05.094Z,1020.72
2023-03-29T04:32:36.263Z,1020.72
2023-03-29T04:33:09.049Z,1020.42
2023-03-29T04:33:40.221Z,1020.52
2023-03-29T04:34:13.107Z,1020.52
2023-03-29T04:34:44.266Z,1020.42
2023-03-29T04:35:17.338Z,1020.42
2023-03-29T04:35:48.267Z,1020.52
2023-03-29T04:36:21.076Z,1020.52
2023-03-29T04:36:52.143Z,1020.62
2023-03-29T04:37:25.219Z,1020.62
2023-03-29T04:37:56.538Z,1020.62
2023-03-29T04:38:29.051Z,1020.62
2023-03-29T04:39:00.129Z,1020.42
2023-03-29T04:39:33.097Z,1020.42
2023-03-29T04:40:04.578Z,1020.42
2023-03-29T04:40:37.395Z,1020.42
2023-03-29T04:41:08.188Z,1020.32
2023-03-29T04:41:41.137Z,1020.32
2023-03-29T04:42:12.249Z,1020.32
2023-03-29T04:42:45.056Z,1020.52
2023-03-29T04:43:16.208Z,1020.52
2023-03-29T04:43:49.277Z,1020.42
2023-03-29T04:44:20.098Z,1020.42
2023-03-29T04:44:54.138Z,1020.42
2023-03-29T04:45:25.334Z,1020.42
2023-03-29T04:45:57.161Z,1020.42
2023-03-29T04:46:28.292Z,1020.42
2023-03-29T04:47:01.211Z,1020.42
2023-03-29T04:47:32.404Z,1020.42
2023-03-29T04:48:05.223Z,1020.32
2023-03-29T04:48:36.283Z,1020.32
2023-03-29T04:49:09.245Z,1020.42
2023-03-29T04:49:40.141Z,1020.32
2023-03-29T04:50:14.158Z,1020.32
2023-03-29T04:50:44.280Z,1020.22
2023-03-29T04:51:17.172Z,1020.22
2023-03-29T04:51:48.221Z,1020.32
2023-03-29T04:52:04.418Z,1020.32
2023-03-29T04:52:36.246Z,1020.32
2023-03-29T04:53:08.251Z,1020.32
2023-03-29T04:53:40.251Z,1020.22
2023-03-29T04:54:12.058Z,1020.22
2023-03-29T04:54:45.076Z,1020.52
2023-03-29T04:55:16.553Z,1020.52
2023-03-29T04:55:49.169Z,1020.52
2023-03-29T04:56:20.438Z,1020.52
2023-03-29T04:56:53.026Z,1020.42
2023-03-29T04:57:24.341Z,1020.42
2023-03-29T04:57:57.110Z,1020.32
2023-03-29T04:58:32.034Z,1020.32
2023-03-29T04:59:01.227Z,1020.32
2023-03-29T04:59:32.379Z,1020.32
2023-03-29T05:00:06.332Z,1020.22
2023-03-29T05:00:36.347Z,1020.22
2023-03-29T05:01:09.155Z,1020.62
2023-03-29T05:01:40.215Z,1020.52
2023-03-29T05:02:13.077Z,1020.52
2023-03-29T05:02:44.618Z,1020.11
2023-03-29T05:03:17.081Z,1020.11
2023-03-29T05:03:48.474Z,1020.42
2023-03-29T05:04:21.166Z,1020.42
2023-03-29T05:04:52.500Z,1020.32
2023-03-29T05:05:25.469Z,1020.32
2023-03-29T05:05:56.351Z,1020.32
2023-03-29T05:06:29.248Z,1020.32
2023-03-29T05:07:00.583Z,1020.52
2023-03-29T05:07:33.374Z,1020.52
2023-03-29T05:08:04.447Z,1020.32
2023-03-29T05:08:37.290Z,1020.32
2023-03-29T05:09:08.401Z,1020.11
2023-03-29T05:09:41.262Z,1020.22
2023-03-29T05:10:12.784Z,1020.22
2023-03-29T05:10:45.116Z,1020.32
2023-03-29T05:11:16.502Z,1020.32
2023-03-29T05:11:49.442Z,1020.22
2023-03-29T05:12:20.526Z,1020.22
2023-03-29T05:12:53.336Z,1020.22
2023-03-29T05:13:24.508Z,1020.22
2023-03-29T05:13:58.206Z,1020.22
2023-03-29T05:14:28.433Z,1020.22
2023-03-29T05:15:02.708Z,1020.32
2023-03-29T05:15:32.594Z,1020.32
2023-03-29T05:16:05.528Z,1020.11
2023-03-29T05:16:36.527Z,1020.11
2023-03-29T05:17:10.391Z,1020.22
2023-03-29T05:17:40.561Z,1020.01
2023-03-29T05:18:13.171Z,1020.01
2023-03-29T05:18:44.503Z,1020.11
2023-03-29T05:19:17.407Z,1020.11
2023-03-29T05:19:48.555Z,1020.01
2023-03-29T05:20:21.536Z,1020.01
2023-03-29T05:20:52.534Z,1020.11
2023-03-29T05:21:25.485Z,1020.11
2023-03-29T05:21:56.381Z,1020.22
2023-03-29T05:22:30.372Z,1020.22
2023-03-29T05:23:00.493Z,1020.42
2023-03-29T05:23:33.416Z,1020.42
2023-03-29T05:24:04.490Z,1020.32
2023-03-29T05:24:37.506Z,1020.32
2023-03-29T05:25:08.992Z,1020.32
2023-03-29T05:25:41.219Z,1020.22
2023-03-29T05:26:12.514Z,1020.22
2023-03-29T05:26:45.558Z,1020.42
2023-03-29T05:27:16.447Z,1020.42
2023-03-29T05:27:49.246Z,1020.22
2023-03-29T05:28:20.507Z,1020.22
2023-03-29T05:28:53.560Z,1020.01
2023-03-29T05:29:24.410Z,1020.01
2023-03-29T05:29:57.478Z,1020.32
2023-03-29T05:30:29.628Z,1020.32
2023-03-29T05:31:01.621Z,1020.11
2023-03-29T05:31:32.689Z,1020.11
2023-03-29T05:32:06.267Z,1020.01
2023-03-29T05:32:36.606Z,1020.01
2023-03-29T05:33:09.278Z,1020.32
2023-03-29T05:33:40.474Z,1020.11
2023-03-29T05:34:13.313Z,1020.11
2023-03-29T05:34:44.619Z,1020.32
2023-03-29T05:35:17.541Z,1020.32
2023-03-29T05:35:48.478Z,1020.01
2023-03-29T05:36:21.124Z,1020.01
2023-03-29T05:36:52.440Z,1020.01
2023-03-29T05:37:25.383Z,1020.01
2023-03-29T05:37:56.664Z,1020.22
2023-03-29T05:38:29.218Z,1020.22
2023-03-29T05:39:00.468Z,1020.11
2023-03-29T05:39:34.590Z,1020.11
2023-03-29T05:40:06.133Z,1020.22
2023-03-29T05:40:38.104Z,1020.22
2023-03-29T05:41:08.465Z,1020.11
2023-03-29T05:41:42.451Z,1020.11
2023-03-29T05:42:12.413Z,1020.11
2023-03-29T05:42:45.200Z,1019.81
2023-03-29T05:43:16.523Z,1019.81
2023-03-29T05:43:49.392Z,1020.11
2023-03-29T05:44:20.365Z,1020.11
2023-03-29T05:44:54.536Z,1020.11
2023-03-29T05:45:25.509Z,1020.11
2023-03-29T05:45:58.522Z,1020.22
2023-03-29T05:46:28.450Z,1020.22
2023-03-29T05:47:01.239Z,1020.01
2023-03-29T05:47:32.546Z,1020.01
2023-03-29T05:48:06.142Z,1020.01
2023-03-29T05:48:36.436Z,1020.01
2023-03-29T05:49:09.246Z,1020.01
2023-03-29T05:49:40.370Z,1020.01
2023-03-29T05:50:13.500Z,1020.01
2023-03-29T05:50:46.264Z,1020.32
2023-03-29T05:51:17.307Z,1020.32
2023-03-29T05:51:48.385Z,1019.91
2023-03-29T05:52:21.428Z,1019.91
2023-03-29T05:52:52.685Z,1020.11
2023-03-29T05:53:25.144Z,1020.11
2023-03-29T05:53:56.703Z,1020.01
2023-03-29T05:54:29.259Z,1020.01
2023-03-29T05:55:00.776Z,1020.11
2023-03-29T05:55:33.546Z,1020.11
2023-03-29T05:56:04.599Z,1020.11
2023-03-29T05:56:37.059Z,1020.11
2023-03-29T05:57:08.506Z,1019.91
2023-03-29T05:57:41.451Z,1020.11
2023-03-29T05:58:12.506Z,1020.11
2023-03-29T05:58:45.249Z,1020.01
2023-03-29T05:59:16.499Z,1020.01
2023-03-29T05:59:49.429Z,1019.91
2023-03-29T06:00:21.551Z,1019.91
2023-03-29T06:00:53.336Z,1019.81
2023-03-29T06:01:24.462Z,1019.81
2023-03-29T06:01:57.361Z,1020.01
2023-03-29T06:02:28.543Z,1020.01
2023-03-29T06:03:13.679Z,1020.22
2023-03-29T06:03:32.746Z,1020.22
2023-03-29T06:04:05.364Z,1020.22
2023-03-29T06:04:36.638Z,1020.22
2023-03-29T06:05:09.399Z,1019.91
2023-03-29T06:05:40.472Z,1020.11
2023-03-29T06:06:13.136Z,1020.11
2023-03-29T06:06:44.433Z,1020.32
2023-03-29T06:07:17.348Z,1020.32
2023-03-29T06:07:48.495Z,1020.01
2023-03-29T06:08:04.595Z,1020.01
2023-03-29T06:08:36.617Z,1020.01
2023-03-29T06:09:08.483Z,1020.22
2023-03-29T06:09:41.292Z,1019.91
2023-03-29T06:10:12.871Z,1019.91
2023-03-29T06:10:45.421Z,1019.91
2023-03-29T06:11:16.538Z,1019.91
2023-03-29T06:11:50.130Z,1019.91
2023-03-29T06:12:20.389Z,1019.91
2023-03-29T06:12:53.470Z,1020.11
2023-03-29T06:13:24.644Z,1020.11
2023-03-29T06:13:57.459Z,1020.11
2023-03-29T06:14:28.541Z,1020.11
2023-03-29T06:15:02.913Z,1020.01
2023-03-29T06:15:32.817Z,1020.01
2023-03-29T06:16:05.344Z,1020.22
2023-03-29T06:16:36.621Z,1020.22
2023-03-29T06:17:09.552Z,1020.22
2023-03-29T06:17:40.413Z,1020.11
2023-03-29T06:18:13.243Z,1020.11
2023-03-29T06:18:44.655Z,1020.01
2023-03-29T06:19:17.420Z,1020.01
2023-03-29T06:19:48.429Z,1020.22
2023-03-29T06:20:21.563Z,1020.22
2023-03-29T06:20:52.516Z,1020.22
2023-03-29T06:21:25.312Z,1020.22
2023-03-29T06:21:56.423Z,1020.32
2023-03-29T06:22:29.392Z,1020.32
2023-03-29T06:23:00.438Z,1020.11
2023-03-29T06:23:34.808Z,1020.11
2023-03-29T06:24:04.605Z,1020.11
2023-03-29T06:24:37.382Z,1020.11
2023-03-29T06:25:08.572Z,1020.32
2023-03-29T06:25:41.264Z,1020.32